sensor_id;sensor_type;location;lat;lon;timestamp;P1;durP1;ratioP1;P2;durP2;ratioP2
19621;SDS011;9958;33.196;-97.114;2024-03-02T00:00:51;5.13;;;2.80;;
19621;SDS011;9958;33.196;-97.114;2024-03-02T00:03:19;4.72;;;3.40;;
19621;SDS011;9958;33.196;-97.114;2024-03-02T00:05:51;7.70;;;3.92;;
19621;SDS011;9958;33.196;-97.114;2024-03-02T00:08:22;7.18;;;3.20;;
19621;SDS011;9958;33.196;-97.114;2024-03-02T00:10:52;8.48;;;3.80;;
19621;SDS011;9958;33.196;-97.114;2024-03-02T00:13:25;5.43;;;3.22;;
19621;SDS011;9958;33.196;-97.114;2024-03-02T00:15:54;8.65;;;2.95;;
19621;SDS011;9958;33.196;-97.114;2024-03-02T00:18:25;5.20;;;2.97;;
19621;SDS011;9958;33.196;-97.114;2024-03-02T00:20:54;5.53;;;3.30;;
19621;SDS011;9958;33.196;-97.114;2024-03-02T00:23:26;5.97;;;2.90;;
19621;SDS011;9958;33.196;-97.114;2024-03-02T00:25:57;8.35;;;2.88;;
19621;SDS011;9958;33.196;-97.114;2024-03-02T00:28:26;4.30;;;3.15;;
19621;SDS011;9958;33.196;-97.114;2024-03-02T00:30:59;7.13;;;3.28;;
19621;SDS011;9958;33.196;-97.114;2024-03-02T00:33:30;6.07;;;3.72;;
19621;SDS011;9958;33.196;-97.114;2024-03-02T00:36:00;7.75;;;3.40;;
19621;SDS011;9958;33.196;-97.114;2024-03-02T00:38:31;9.05;;;3.90;;
19621;SDS011;9958;33.196;-97.114;2024-03-02T00:41:00;5.40;;;3.40;;
19621;SDS011;9958;33.196;-97.114;2024-03-02T00:43:42;5.80;;;2.85;;
19621;SDS011;9958;33.196;-97.114;2024-03-02T00:46:12;5.80;;;3.38;;
19621;SDS011;9958;33.196;-97.114;2024-03-02T00:48:47;6.78;;;3.50;;
19621;SDS011;9958;33.196;-97.114;2024-03-02T00:51:21;8.70;;;3.83;;
19621;SDS011;9958;33.196;-97.114;2024-03-02T00:53:52;3.83;;;2.92;;
19621;SDS011;9958;33.196;-97.114;2024-03-02T00:56:22;7.68;;;3.58;;
19621;SDS011;9958;33.196;-97.114;2024-03-02T00:58:51;7.13;;;3.55;;
19621;SDS011;9958;33.196;-97.114;2024-03-02T01:01:20;4.55;;;3.20;;
19621;SDS011;9958;33.196;-97.114;2024-03-02T01:03:48;5.05;;;3.17;;
19621;SDS011;9958;33.196;-97.114;2024-03-02T01:06:17;6.55;;;3.97;;
19621;SDS011;9958;33.196;-97.114;2024-03-02T01:08:45;4.70;;;3.55;;
19621;SDS011;9958;33.196;-97.114;2024-03-02T01:11:18;4.93;;;3.30;;
19621;SDS011;9958;33.196;-97.114;2024-03-02T01:13:47;5.72;;;3.50;;
19621;SDS011;9958;33.196;-97.114;2024-03-02T01:16:15;6.28;;;3.55;;
19621;SDS011;9958;33.196;-97.114;2024-03-02T01:18:44;4.30;;;3.40;;
19621;SDS011;9958;33.196;-97.114;2024-03-02T01:21:12;3.88;;;3.03;;
19621;SDS011;9958;33.196;-97.114;2024-03-02T01:23:40;5.82;;;3.30;;
19621;SDS011;9958;33.196;-97.114;2024-03-02T01:26:09;8.63;;;3.00;;
19621;SDS011;9958;33.196;-97.114;2024-03-02T01:28:39;8.60;;;4.10;;
19621;SDS011;9958;33.196;-97.114;2024-03-02T01:31:07;7.97;;;4.40;;
19621;SDS011;9958;33.196;-97.114;2024-03-02T01:33:35;13.07;;;4.25;;
19621;SDS011;9958;33.196;-97.114;2024-03-02T01:36:04;7.82;;;3.92;;
19621;SDS011;9958;33.196;-97.114;2024-03-02T01:38:33;4.65;;;3.22;;
19621;SDS011;9958;33.196;-97.114;2024-03-02T01:41:02;7.55;;;4.28;;
19621;SDS011;9958;33.196;-97.114;2024-03-02T01:43:30;11.38;;;4.32;;
19621;SDS011;9958;33.196;-97.114;2024-03-02T01:46:00;7.28;;;4.03;;
19621;SDS011;9958;33.196;-97.114;2024-03-02T01:48:28;7.55;;;4.30;;
19621;SDS011;9958;33.196;-97.114;2024-03-02T01:50:57;8.98;;;4.63;;
19621;SDS011;9958;33.196;-97.114;2024-03-02T01:53:25;7.85;;;4.32;;
19621;SDS011;9958;33.196;-97.114;2024-03-02T01:55:54;9.43;;;4.75;;
19621;SDS011;9958;33.196;-97.114;2024-03-02T01:58:22;8.73;;;4.47;;
19621;SDS011;9958;33.196;-97.114;2024-03-02T02:00:50;6.95;;;4.07;;
19621;SDS011;9958;33.196;-97.114;2024-03-02T02:03:20;6.70;;;4.40;;
19621;SDS011;9958;33.196;-97.114;2024-03-02T02:05:48;8.18;;;4.53;;
19621;SDS011;9958;33.196;-97.114;2024-03-02T02:08:17;6.57;;;4.22;;
19621;SDS011;9958;33.196;-97.114;2024-03-02T02:10:45;8.55;;;4.07;;
19621;SDS011;9958;33.196;-97.114;2024-03-02T02:13:14;8.90;;;4.07;;
19621;SDS011;9958;33.196;-97.114;2024-03-02T02:15:43;9.70;;;4.40;;
19621;SDS011;9958;33.196;-97.114;2024-03-02T02:18:11;9.77;;;4.40;;
19621;SDS011;9958;33.196;-97.114;2024-03-02T02:20:41;7.40;;;4.65;;
19621;SDS011;9958;33.196;-97.114;2024-03-02T02:23:11;11.68;;;4.72;;
19621;SDS011;9958;33.196;-97.114;2024-03-02T02:25:39;9.25;;;5.35;;
19621;SDS011;9958;33.196;-97.114;2024-03-02T02:28:07;6.93;;;4.05;;
19621;SDS011;9958;33.196;-97.114;2024-03-02T02:30:36;7.00;;;4.15;;
19621;SDS011;9958;33.196;-97.114;2024-03-02T02:33:04;8.32;;;3.83;;
19621;SDS011;9958;33.196;-97.114;2024-03-02T02:35:32;9.65;;;4.30;;
19621;SDS011;9958;33.196;-97.114;2024-03-02T02:38:01;6.65;;;3.83;;
19621;SDS011;9958;33.196;-97.114;2024-03-02T02:40:31;6.72;;;3.80;;
19621;SDS011;9958;33.196;-97.114;2024-03-02T02:43:00;5.65;;;4.13;;
19621;SDS011;9958;33.196;-97.114;2024-03-02T02:45:28;6.07;;;4.32;;
19621;SDS011;9958;33.196;-97.114;2024-03-02T02:47:56;6.88;;;4.00;;
19621;SDS011;9958;33.196;-97.114;2024-03-02T02:50:26;7.25;;;4.07;;
19621;SDS011;9958;33.196;-97.114;2024-03-02T02:52:55;9.55;;;4.07;;
19621;SDS011;9958;33.196;-97.114;2024-03-02T02:55:23;12.13;;;4.57;;
19621;SDS011;9958;33.196;-97.114;2024-03-02T02:57:53;11.23;;;4.30;;
19621;SDS011;9958;33.196;-97.114;2024-03-02T03:00:21;7.05;;;4.35;;
19621;SDS011;9958;33.196;-97.114;2024-03-02T03:02:49;8.80;;;4.15;;
19621;SDS011;9958;33.196;-97.114;2024-03-02T03:05:18;9.23;;;4.63;;
19621;SDS011;9958;33.196;-97.114;2024-03-02T03:07:46;8.15;;;4.50;;
19621;SDS011;9958;33.196;-97.114;2024-03-02T03:10:15;9.15;;;4.97;;
19621;SDS011;9958;33.196;-97.114;2024-03-02T03:12:44;8.10;;;4.88;;
19621;SDS011;9958;33.196;-97.114;2024-03-02T03:15:14;6.93;;;4.85;;
19621;SDS011;9958;33.196;-97.114;2024-03-02T03:17:43;8.50;;;4.80;;
19621;SDS011;9958;33.196;-97.114;2024-03-02T03:20:12;9.32;;;4.72;;
19621;SDS011;9958;33.196;-97.114;2024-03-02T03:22:41;11.27;;;5.10;;
19621;SDS011;9958;33.196;-97.114;2024-03-02T03:25:09;9.35;;;5.07;;
19621;SDS011;9958;33.196;-97.114;2024-03-02T03:27:37;6.20;;;4.45;;
19621;SDS011;9958;33.196;-97.114;2024-03-02T03:30:07;9.55;;;4.75;;
19621;SDS011;9958;33.196;-97.114;2024-03-02T03:32:37;5.70;;;4.88;;
19621;SDS011;9958;33.196;-97.114;2024-03-02T03:35:06;9.43;;;4.85;;
19621;SDS011;9958;33.196;-97.114;2024-03-02T03:37:35;11.40;;;5.00;;
19621;SDS011;9958;33.196;-97.114;2024-03-02T03:40:04;6.95;;;4.53;;
19621;SDS011;9958;33.196;-97.114;2024-03-02T03:42:35;8.02;;;4.07;;
19621;SDS011;9958;33.196;-97.114;2024-03-02T03:45:04;6.43;;;3.95;;
19621;SDS011;9958;33.196;-97.114;2024-03-02T03:47:33;9.43;;;4.47;;
19621;SDS011;9958;33.196;-97.114;2024-03-02T03:50:03;5.72;;;4.10;;
19621;SDS011;9958;33.196;-97.114;2024-03-02T03:52:33;8.25;;;4.40;;
19621;SDS011;9958;33.196;-97.114;2024-03-02T03:55:01;6.93;;;3.95;;
19621;SDS011;9958;33.196;-97.114;2024-03-02T03:57:30;5.90;;;4.25;;
19621;SDS011;9958;33.196;-97.114;2024-03-02T03:59:58;6.30;;;4.20;;
19621;SDS011;9958;33.196;-97.114;2024-03-02T04:02:27;9.55;;;4.55;;
19621;SDS011;9958;33.196;-97.114;2024-03-02T04:04:55;8.30;;;4.13;;
19621;SDS011;9958;33.196;-97.114;2024-03-02T04:07:25;10.20;;;4.80;;
19621;SDS011;9958;33.196;-97.114;2024-03-02T04:09:54;5.53;;;4.18;;
19621;SDS011;9958;33.196;-97.114;2024-03-02T04:12:23;7.35;;;4.45;;
19621;SDS011;9958;33.196;-97.114;2024-03-02T04:14:51;6.68;;;4.57;;
19621;SDS011;9958;33.196;-97.114;2024-03-02T04:17:19;6.63;;;4.28;;
19621;SDS011;9958;33.196;-97.114;2024-03-02T04:19:48;6.05;;;3.80;;
19621;SDS011;9958;33.196;-97.114;2024-03-02T04:22:16;4.97;;;4.00;;
19621;SDS011;9958;33.196;-97.114;2024-03-02T04:24:46;9.20;;;4.13;;
19621;SDS011;9958;33.196;-97.114;2024-03-02T04:27:14;8.98;;;4.25;;
19621;SDS011;9958;33.196;-97.114;2024-03-02T04:29:42;11.52;;;4.43;;
19621;SDS011;9958;33.196;-97.114;2024-03-02T04:32:10;5.97;;;4.22;;
19621;SDS011;9958;33.196;-97.114;2024-03-02T04:34:39;7.55;;;4.32;;
19621;SDS011;9958;33.196;-97.114;2024-03-02T04:37:08;11.55;;;4.05;;
19621;SDS011;9958;33.196;-97.114;2024-03-02T04:39:39;6.07;;;4.07;;
19621;SDS011;9958;33.196;-97.114;2024-03-02T04:42:09;7.57;;;4.30;;
19621;SDS011;9958;33.196;-97.114;2024-03-02T04:44:38;6.68;;;4.15;;
19621;SDS011;9958;33.196;-97.114;2024-03-02T04:47:06;6.82;;;3.90;;
19621;SDS011;9958;33.196;-97.114;2024-03-02T04:49:34;11.00;;;4.32;;
19621;SDS011;9958;33.196;-97.114;2024-03-02T04:52:03;9.48;;;4.28;;
19621;SDS011;9958;33.196;-97.114;2024-03-02T04:54:31;8.50;;;4.47;;
19621;SDS011;9958;33.196;-97.114;2024-03-02T04:57:22;7.80;;;5.00;;
19621;SDS011;9958;33.196;-97.114;2024-03-02T04:59:50;8.93;;;4.32;;
19621;SDS011;9958;33.196;-97.114;2024-03-02T05:02:18;5.03;;;3.70;;
19621;SDS011;9958;33.196;-97.114;2024-03-02T05:04:45;8.38;;;4.50;;
19621;SDS011;9958;33.196;-97.114;2024-03-02T05:07:14;7.95;;;4.25;;
19621;SDS011;9958;33.196;-97.114;2024-03-02T05:09:42;9.30;;;4.53;;
19621;SDS011;9958;33.196;-97.114;2024-03-02T05:12:10;6.38;;;4.05;;
19621;SDS011;9958;33.196;-97.114;2024-03-02T05:14:56;12.75;;;4.60;;
19621;SDS011;9958;33.196;-97.114;2024-03-02T05:17:24;7.65;;;4.00;;
19621;SDS011;9958;33.196;-97.114;2024-03-02T05:19:53;8.90;;;4.78;;
19621;SDS011;9958;33.196;-97.114;2024-03-02T05:22:21;10.98;;;4.53;;
19621;SDS011;9958;33.196;-97.114;2024-03-02T05:24:49;10.95;;;4.75;;
19621;SDS011;9958;33.196;-97.114;2024-03-02T05:27:17;10.02;;;4.68;;
19621;SDS011;9958;33.196;-97.114;2024-03-02T05:29:46;7.57;;;5.65;;
19621;SDS011;9958;33.196;-97.114;2024-03-02T05:32:16;7.53;;;4.90;;
19621;SDS011;9958;33.196;-97.114;2024-03-02T05:34:44;6.85;;;4.43;;
19621;SDS011;9958;33.196;-97.114;2024-03-02T05:37:12;7.00;;;4.55;;
19621;SDS011;9958;33.196;-97.114;2024-03-02T05:39:41;9.40;;;4.47;;
19621;SDS011;9958;33.196;-97.114;2024-03-02T05:42:09;9.55;;;5.00;;
19621;SDS011;9958;33.196;-97.114;2024-03-02T05:44:38;7.53;;;4.93;;
19621;SDS011;9958;33.196;-97.114;2024-03-02T05:47:06;9.27;;;4.72;;
19621;SDS011;9958;33.196;-97.114;2024-03-02T05:49:36;9.95;;;4.95;;
19621;SDS011;9958;33.196;-97.114;2024-03-02T05:52:05;8.13;;;5.03;;
19621;SDS011;9958;33.196;-97.114;2024-03-02T05:54:34;16.02;;;5.05;;
19621;SDS011;9958;33.196;-97.114;2024-03-02T05:57:02;8.73;;;4.40;;
19621;SDS011;9958;33.196;-97.114;2024-03-02T05:59:48;10.88;;;5.00;;
19621;SDS011;9958;33.196;-97.114;2024-03-02T06:02:17;7.80;;;4.78;;
19621;SDS011;9958;33.196;-97.114;2024-03-02T06:04:47;10.10;;;4.80;;
19621;SDS011;9958;33.196;-97.114;2024-03-02T06:07:15;8.32;;;4.75;;
19621;SDS011;9958;33.196;-97.114;2024-03-02T06:09:43;11.77;;;5.05;;
19621;SDS011;9958;33.196;-97.114;2024-03-02T06:12:14;8.07;;;4.88;;
19621;SDS011;9958;33.196;-97.114;2024-03-02T06:14:42;12.52;;;5.72;;
19621;SDS011;9958;33.196;-97.114;2024-03-02T06:17:11;9.93;;;5.18;;
19621;SDS011;9958;33.196;-97.114;2024-03-02T06:19:39;9.30;;;5.63;;
19621;SDS011;9958;33.196;-97.114;2024-03-02T06:22:09;7.38;;;5.05;;
19621;SDS011;9958;33.196;-97.114;2024-03-02T06:24:37;9.88;;;5.03;;
19621;SDS011;9958;33.196;-97.114;2024-03-02T06:27:06;9.85;;;5.90;;
19621;SDS011;9958;33.196;-97.114;2024-03-02T06:29:34;7.97;;;5.05;;
19621;SDS011;9958;33.196;-97.114;2024-03-02T06:32:02;7.35;;;4.82;;
19621;SDS011;9958;33.196;-97.114;2024-03-02T06:34:31;9.55;;;5.20;;
19621;SDS011;9958;33.196;-97.114;2024-03-02T06:36:59;10.95;;;5.07;;
19621;SDS011;9958;33.196;-97.114;2024-03-02T06:39:29;8.02;;;4.80;;
19621;SDS011;9958;33.196;-97.114;2024-03-02T06:41:59;8.02;;;4.80;;
19621;SDS011;9958;33.196;-97.114;2024-03-02T06:44:27;8.35;;;5.35;;
19621;SDS011;9958;33.196;-97.114;2024-03-02T06:46:56;11.07;;;4.88;;
19621;SDS011;9958;33.196;-97.114;2024-03-02T06:49:24;8.85;;;4.82;;
19621;SDS011;9958;33.196;-97.114;2024-03-02T06:51:52;11.60;;;6.05;;
19621;SDS011;9958;33.196;-97.114;2024-03-02T06:54:21;10.95;;;5.65;;
19621;SDS011;9958;33.196;-97.114;2024-03-02T06:56:51;11.73;;;4.75;;
19621;SDS011;9958;33.196;-97.114;2024-03-02T06:59:19;10.50;;;5.07;;
19621;SDS011;9958;33.196;-97.114;2024-03-02T07:01:47;9.95;;;5.53;;
19621;SDS011;9958;33.196;-97.114;2024-03-02T07:04:15;9.88;;;5.18;;
19621;SDS011;9958;33.196;-97.114;2024-03-02T07:06:44;8.38;;;5.22;;
19621;SDS011;9958;33.196;-97.114;2024-03-02T07:09:12;8.32;;;5.00;;
19621;SDS011;9958;33.196;-97.114;2024-03-02T07:11:40;9.20;;;5.30;;
19621;SDS011;9958;33.196;-97.114;2024-03-02T07:14:10;8.55;;;4.88;;
19621;SDS011;9958;33.196;-97.114;2024-03-02T07:16:39;6.88;;;5.47;;
19621;SDS011;9958;33.196;-97.114;2024-03-02T07:19:06;8.43;;;5.40;;
19621;SDS011;9958;33.196;-97.114;2024-03-02T07:21:34;10.38;;;5.70;;
19621;SDS011;9958;33.196;-97.114;2024-03-02T07:24:03;8.32;;;5.07;;
19621;SDS011;9958;33.196;-97.114;2024-03-02T07:26:31;14.57;;;5.28;;
19621;SDS011;9958;33.196;-97.114;2024-03-02T07:28:59;9.23;;;4.82;;
19621;SDS011;9958;33.196;-97.114;2024-03-02T07:31:29;9.98;;;5.25;;
19621;SDS011;9958;33.196;-97.114;2024-03-02T07:33:57;11.27;;;4.93;;
19621;SDS011;9958;33.196;-97.114;2024-03-02T07:36:26;8.55;;;5.10;;
19621;SDS011;9958;33.196;-97.114;2024-03-02T07:38:54;9.07;;;5.35;;
19621;SDS011;9958;33.196;-97.114;2024-03-02T07:41:22;6.80;;;4.53;;
19621;SDS011;9958;33.196;-97.114;2024-03-02T07:43:51;9.38;;;5.00;;
19621;SDS011;9958;33.196;-97.114;2024-03-02T07:46:19;8.70;;;4.93;;
19621;SDS011;9958;33.196;-97.114;2024-03-02T07:48:49;9.50;;;5.68;;
19621;SDS011;9958;33.196;-97.114;2024-03-02T07:51:18;7.88;;;5.05;;
19621;SDS011;9958;33.196;-97.114;2024-03-02T07:53:46;9.70;;;5.95;;
19621;SDS011;9958;33.196;-97.114;2024-03-02T07:56:15;7.68;;;4.85;;
19621;SDS011;9958;33.196;-97.114;2024-03-02T07:58:47;8.73;;;5.43;;
19621;SDS011;9958;33.196;-97.114;2024-03-02T08:01:16;10.43;;;5.45;;
19621;SDS011;9958;33.196;-97.114;2024-03-02T08:03:44;9.98;;;5.68;;
19621;SDS011;9958;33.196;-97.114;2024-03-02T08:06:17;9.02;;;5.40;;
19621;SDS011;9958;33.196;-97.114;2024-03-02T08:08:47;12.43;;;5.10;;
19621;SDS011;9958;33.196;-97.114;2024-03-02T08:11:15;7.97;;;5.30;;
19621;SDS011;9958;33.196;-97.114;2024-03-02T08:13:43;9.02;;;5.97;;
19621;SDS011;9958;33.196;-97.114;2024-03-02T08:16:11;13.90;;;6.10;;
19621;SDS011;9958;33.196;-97.114;2024-03-02T08:18:40;8.80;;;4.85;;
19621;SDS011;9958;33.196;-97.114;2024-03-02T08:21:08;7.38;;;4.93;;
19621;SDS011;9958;33.196;-97.114;2024-03-02T08:23:38;10.70;;;5.25;;
19621;SDS011;9958;33.196;-97.114;2024-03-02T08:26:07;7.07;;;4.93;;
19621;SDS011;9958;33.196;-97.114;2024-03-02T08:28:36;8.27;;;5.13;;
19621;SDS011;9958;33.196;-97.114;2024-03-02T08:31:06;9.70;;;5.65;;
19621;SDS011;9958;33.196;-97.114;2024-03-02T08:33:34;17.23;;;5.38;;
19621;SDS011;9958;33.196;-97.114;2024-03-02T08:36:03;9.57;;;5.60;;
19621;SDS011;9958;33.196;-97.114;2024-03-02T08:38:32;10.30;;;5.30;;
19621;SDS011;9958;33.196;-97.114;2024-03-02T08:41:02;10.50;;;5.97;;
19621;SDS011;9958;33.196;-97.114;2024-03-02T08:43:30;12.15;;;5.53;;
19621;SDS011;9958;33.196;-97.114;2024-03-02T08:45:59;8.43;;;5.00;;
19621;SDS011;9958;33.196;-97.114;2024-03-02T08:48:27;13.75;;;6.45;;
19621;SDS011;9958;33.196;-97.114;2024-03-02T08:50:55;7.22;;;5.53;;
19621;SDS011;9958;33.196;-97.114;2024-03-02T08:53:24;8.65;;;5.93;;
19621;SDS011;9958;33.196;-97.114;2024-03-02T08:55:52;11.13;;;5.55;;
19621;SDS011;9958;33.196;-97.114;2024-03-02T08:58:22;9.07;;;5.80;;
19621;SDS011;9958;33.196;-97.114;2024-03-02T09:00:50;9.48;;;4.75;;
19621;SDS011;9958;33.196;-97.114;2024-03-02T09:03:19;7.85;;;5.78;;
19621;SDS011;9958;33.196;-97.114;2024-03-02T09:05:47;8.27;;;5.00;;
19621;SDS011;9958;33.196;-97.114;2024-03-02T09:08:15;7.47;;;5.55;;
19621;SDS011;9958;33.196;-97.114;2024-03-02T09:10:44;10.10;;;4.93;;
19621;SDS011;9958;33.196;-97.114;2024-03-02T09:13:12;8.15;;;5.63;;
19621;SDS011;9958;33.196;-97.114;2024-03-02T09:15:42;7.28;;;5.00;;
19621;SDS011;9958;33.196;-97.114;2024-03-02T09:18:11;8.05;;;5.38;;
19621;SDS011;9958;33.196;-97.114;2024-03-02T09:20:39;10.80;;;5.90;;
19621;SDS011;9958;33.196;-97.114;2024-03-02T09:23:07;7.25;;;5.30;;
19621;SDS011;9958;33.196;-97.114;2024-03-02T09:25:36;9.90;;;5.88;;
19621;SDS011;9958;33.196;-97.114;2024-03-02T09:28:04;9.15;;;5.20;;
19621;SDS011;9958;33.196;-97.114;2024-03-02T09:30:32;9.25;;;5.05;;
19621;SDS011;9958;33.196;-97.114;2024-03-02T09:33:03;11.40;;;5.40;;
19621;SDS011;9958;33.196;-97.114;2024-03-02T09:35:32;7.32;;;5.47;;
19621;SDS011;9958;33.196;-97.114;2024-03-02T09:38:00;12.38;;;6.55;;
19621;SDS011;9958;33.196;-97.114;2024-03-02T09:40:29;9.40;;;5.18;;
19621;SDS011;9958;33.196;-97.114;2024-03-02T09:42:57;8.20;;;5.05;;
19621;SDS011;9958;33.196;-97.114;2024-03-02T09:45:26;9.10;;;6.15;;
19621;SDS011;9958;33.196;-97.114;2024-03-02T09:47:54;7.88;;;5.43;;
19621;SDS011;9958;33.196;-97.114;2024-03-02T09:50:24;10.93;;;5.82;;
19621;SDS011;9958;33.196;-97.114;2024-03-02T09:52:53;10.00;;;5.43;;
19621;SDS011;9958;33.196;-97.114;2024-03-02T09:55:21;11.77;;;6.13;;
19621;SDS011;9958;33.196;-97.114;2024-03-02T09:57:50;9.07;;;5.45;;
19621;SDS011;9958;33.196;-97.114;2024-03-02T10:00:18;7.85;;;5.78;;
19621;SDS011;9958;33.196;-97.114;2024-03-02T10:02:47;10.65;;;5.97;;
19621;SDS011;9958;33.196;-97.114;2024-03-02T10:05:25;8.77;;;5.40;;
19621;SDS011;9958;33.196;-97.114;2024-03-02T10:08:00;10.10;;;5.38;;
19621;SDS011;9958;33.196;-97.114;2024-03-02T10:10:34;8.88;;;5.47;;
19621;SDS011;9958;33.196;-97.114;2024-03-02T10:13:05;9.82;;;5.35;;
19621;SDS011;9958;33.196;-97.114;2024-03-02T10:15:35;14.80;;;6.35;;
19621;SDS011;9958;33.196;-97.114;2024-03-02T10:18:07;11.80;;;5.65;;
19621;SDS011;9958;33.196;-97.114;2024-03-02T10:20:39;10.90;;;5.43;;
19621;SDS011;9958;33.196;-97.114;2024-03-02T10:23:11;6.80;;;5.43;;
19621;SDS011;9958;33.196;-97.114;2024-03-02T10:25:40;8.75;;;5.07;;
19621;SDS011;9958;33.196;-97.114;2024-03-02T10:28:09;9.20;;;5.53;;
19621;SDS011;9958;33.196;-97.114;2024-03-02T10:30:37;7.97;;;5.60;;
19621;SDS011;9958;33.196;-97.114;2024-03-02T10:33:06;10.57;;;5.68;;
19621;SDS011;9958;33.196;-97.114;2024-03-02T10:35:34;9.65;;;5.78;;
19621;SDS011;9958;33.196;-97.114;2024-03-02T10:38:05;9.15;;;5.55;;
19621;SDS011;9958;33.196;-97.114;2024-03-02T10:40:33;9.65;;;5.72;;
19621;SDS011;9958;33.196;-97.114;2024-03-02T10:43:01;10.52;;;5.55;;
19621;SDS011;9958;33.196;-97.114;2024-03-02T10:45:31;8.13;;;5.15;;
19621;SDS011;9958;33.196;-97.114;2024-03-02T10:48:00;8.05;;;5.13;;
19621;SDS011;9958;33.196;-97.114;2024-03-02T10:50:30;10.18;;;5.13;;
19621;SDS011;9958;33.196;-97.114;2024-03-02T10:52:59;8.57;;;6.15;;
19621;SDS011;9958;33.196;-97.114;2024-03-02T10:55:29;8.77;;;5.32;;
19621;SDS011;9958;33.196;-97.114;2024-03-02T10:57:57;9.10;;;5.13;;
19621;SDS011;9958;33.196;-97.114;2024-03-02T11:00:33;9.32;;;5.50;;
19621;SDS011;9958;33.196;-97.114;2024-03-02T11:03:05;8.52;;;5.47;;
19621;SDS011;9958;33.196;-97.114;2024-03-02T11:05:36;8.88;;;5.18;;
19621;SDS011;9958;33.196;-97.114;2024-03-02T11:08:06;8.88;;;4.97;;
19621;SDS011;9958;33.196;-97.114;2024-03-02T11:10:41;8.68;;;5.88;;
19621;SDS011;9958;33.196;-97.114;2024-03-02T11:13:13;8.63;;;5.75;;
19621;SDS011;9958;33.196;-97.114;2024-03-02T11:15:43;9.02;;;5.03;;
19621;SDS011;9958;33.196;-97.114;2024-03-02T11:18:11;9.07;;;5.63;;
19621;SDS011;9958;33.196;-97.114;2024-03-02T11:20:41;10.43;;;6.05;;
19621;SDS011;9958;33.196;-97.114;2024-03-02T11:23:10;10.60;;;6.13;;
19621;SDS011;9958;33.196;-97.114;2024-03-02T11:25:40;10.10;;;5.68;;
19621;SDS011;9958;33.196;-97.114;2024-03-02T11:28:08;9.25;;;5.57;;
19621;SDS011;9958;33.196;-97.114;2024-03-02T11:30:49;10.90;;;5.40;;
19621;SDS011;9958;33.196;-97.114;2024-03-02T11:33:24;8.60;;;5.30;;
19621;SDS011;9958;33.196;-97.114;2024-03-02T11:35:56;6.60;;;5.22;;
19621;SDS011;9958;33.196;-97.114;2024-03-02T11:38:30;9.27;;;5.22;;
19621;SDS011;9958;33.196;-97.114;2024-03-02T11:41:01;8.57;;;5.68;;
19621;SDS011;9958;33.196;-97.114;2024-03-02T11:43:32;7.32;;;5.35;;
19621;SDS011;9958;33.196;-97.114;2024-03-02T11:46:04;8.02;;;5.28;;
19621;SDS011;9958;33.196;-97.114;2024-03-02T11:48:34;11.40;;;6.07;;
19621;SDS011;9958;33.196;-97.114;2024-03-02T11:51:04;9.57;;;5.70;;
19621;SDS011;9958;33.196;-97.114;2024-03-02T11:53:32;7.60;;;4.97;;
19621;SDS011;9958;33.196;-97.114;2024-03-02T11:56:04;9.30;;;5.82;;
19621;SDS011;9958;33.196;-97.114;2024-03-02T11:58:37;6.68;;;5.03;;
19621;SDS011;9958;33.196;-97.114;2024-03-02T12:01:08;15.23;;;6.60;;
19621;SDS011;9958;33.196;-97.114;2024-03-02T12:03:38;9.32;;;5.68;;
19621;SDS011;9958;33.196;-97.114;2024-03-02T12:06:07;12.23;;;5.50;;
19621;SDS011;9958;33.196;-97.114;2024-03-02T12:08:35;10.48;;;5.30;;
19621;SDS011;9958;33.196;-97.114;2024-03-02T12:11:06;8.43;;;5.78;;
19621;SDS011;9958;33.196;-97.114;2024-03-02T12:13:35;9.32;;;5.97;;
19621;SDS011;9958;33.196;-97.114;2024-03-02T12:16:03;11.77;;;6.45;;
19621;SDS011;9958;33.196;-97.114;2024-03-02T12:18:32;7.28;;;5.00;;
19621;SDS011;9958;33.196;-97.114;2024-03-02T12:21:01;8.23;;;5.00;;
19621;SDS011;9958;33.196;-97.114;2024-03-02T12:23:32;12.35;;;6.18;;
19621;SDS011;9958;33.196;-97.114;2024-03-02T12:26:00;8.32;;;5.15;;
19621;SDS011;9958;33.196;-97.114;2024-03-02T12:28:30;9.70;;;5.70;;
19621;SDS011;9958;33.196;-97.114;2024-03-02T12:30:59;10.85;;;4.90;;
19621;SDS011;9958;33.196;-97.114;2024-03-02T12:33:27;7.50;;;5.40;;
19621;SDS011;9958;33.196;-97.114;2024-03-02T12:35:56;12.25;;;6.60;;
19621;SDS011;9958;33.196;-97.114;2024-03-02T12:38:25;9.25;;;6.07;;
19621;SDS011;9958;33.196;-97.114;2024-03-02T12:40:55;9.50;;;5.65;;
19621;SDS011;9958;33.196;-97.114;2024-03-02T12:43:23;12.40;;;5.70;;
19621;SDS011;9958;33.196;-97.114;2024-03-02T12:45:53;11.60;;;5.97;;
19621;SDS011;9958;33.196;-97.114;2024-03-02T12:48:21;10.48;;;6.22;;
19621;SDS011;9958;33.196;-97.114;2024-03-02T12:50:50;10.93;;;5.68;;
19621;SDS011;9958;33.196;-97.114;2024-03-02T12:53:19;8.60;;;5.03;;
19621;SDS011;9958;33.196;-97.114;2024-03-02T12:55:50;8.68;;;6.07;;
19621;SDS011;9958;33.196;-97.114;2024-03-02T12:58:19;11.00;;;5.82;;
19621;SDS011;9958;33.196;-97.114;2024-03-02T13:00:48;10.48;;;6.07;;
19621;SDS011;9958;33.196;-97.114;2024-03-02T13:03:19;8.15;;;5.45;;
19621;SDS011;9958;33.196;-97.114;2024-03-02T13:05:49;10.35;;;6.18;;
19621;SDS011;9958;33.196;-97.114;2024-03-02T13:08:18;11.20;;;6.05;;
19621;SDS011;9958;33.196;-97.114;2024-03-02T13:10:47;11.00;;;5.85;;
19621;SDS011;9958;33.196;-97.114;2024-03-02T13:13:15;11.07;;;5.32;;
19621;SDS011;9958;33.196;-97.114;2024-03-02T13:15:44;11.80;;;5.95;;
19621;SDS011;9958;33.196;-97.114;2024-03-02T13:18:12;10.18;;;6.10;;
19621;SDS011;9958;33.196;-97.114;2024-03-02T13:20:42;9.93;;;5.90;;
19621;SDS011;9958;33.196;-97.114;2024-03-02T13:23:10;10.88;;;5.80;;
19621;SDS011;9958;33.196;-97.114;2024-03-02T13:25:39;13.20;;;6.55;;
19621;SDS011;9958;33.196;-97.114;2024-03-02T13:28:08;13.48;;;6.05;;
19621;SDS011;9958;33.196;-97.114;2024-03-02T13:30:37;10.52;;;5.47;;
19621;SDS011;9958;33.196;-97.114;2024-03-02T13:33:05;9.15;;;6.30;;
19621;SDS011;9958;33.196;-97.114;2024-03-02T13:35:33;10.13;;;6.57;;
19621;SDS011;9958;33.196;-97.114;2024-03-02T13:38:03;15.25;;;6.35;;
19621;SDS011;9958;33.196;-97.114;2024-03-02T13:40:32;9.85;;;5.80;;
19621;SDS011;9958;33.196;-97.114;2024-03-02T13:43:01;14.02;;;5.90;;
19621;SDS011;9958;33.196;-97.114;2024-03-02T13:45:29;12.65;;;6.50;;
19621;SDS011;9958;33.196;-97.114;2024-03-02T13:47:58;12.75;;;5.85;;
19621;SDS011;9958;33.196;-97.114;2024-03-02T13:50:27;11.63;;;6.18;;
19621;SDS011;9958;33.196;-97.114;2024-03-02T13:52:56;10.80;;;6.18;;
19621;SDS011;9958;33.196;-97.114;2024-03-02T13:55:26;8.93;;;5.57;;
19621;SDS011;9958;33.196;-97.114;2024-03-02T13:57:54;8.70;;;5.72;;
19621;SDS011;9958;33.196;-97.114;2024-03-02T14:00:22;11.55;;;6.13;;
19621;SDS011;9958;33.196;-97.114;2024-03-02T14:02:51;10.45;;;5.85;;
19621;SDS011;9958;33.196;-97.114;2024-03-02T14:05:19;9.43;;;5.93;;
19621;SDS011;9958;33.196;-97.114;2024-03-02T14:07:47;8.75;;;5.82;;
19621;SDS011;9958;33.196;-97.114;2024-03-02T14:10:16;10.25;;;5.35;;
19621;SDS011;9958;33.196;-97.114;2024-03-02T14:12:49;11.98;;;6.85;;
19621;SDS011;9958;33.196;-97.114;2024-03-02T14:15:17;11.40;;;5.88;;
19621;SDS011;9958;33.196;-97.114;2024-03-02T14:17:45;12.60;;;6.43;;
19621;SDS011;9958;33.196;-97.114;2024-03-02T14:20:14;13.55;;;6.68;;
19621;SDS011;9958;33.196;-97.114;2024-03-02T14:22:47;11.27;;;6.03;;
19621;SDS011;9958;33.196;-97.114;2024-03-02T14:25:16;10.35;;;5.25;;
19621;SDS011;9958;33.196;-97.114;2024-03-02T14:27:45;7.95;;;4.93;;
19621;SDS011;9958;33.196;-97.114;2024-03-02T14:30:15;13.18;;;5.78;;
19621;SDS011;9958;33.196;-97.114;2024-03-02T14:32:43;10.20;;;4.70;;
19621;SDS011;9958;33.196;-97.114;2024-03-02T14:35:12;9.68;;;4.55;;
19621;SDS011;9958;33.196;-97.114;2024-03-02T14:37:40;7.13;;;4.63;;
19621;SDS011;9958;33.196;-97.114;2024-03-02T14:40:09;9.27;;;4.55;;
19621;SDS011;9958;33.196;-97.114;2024-03-02T14:42:39;7.60;;;4.70;;